sensor_id;sensor_type;location;lat;lon;timestamp;temperature;humidity
43561;DHT22;32305;46.410;17.394;2023-04-25T00:01:12;23.00;47.10
43561;DHT22;32305;46.410;17.394;2023-04-25T00:03:39;23.00;47.10
43561;DHT22;32305;46.410;17.394;2023-04-25T00:06:07;23.00;47.10
43561;DHT22;32305;46.410;17.394;2023-04-25T00:08:35;22.90;47.10
43561;DHT22;32305;46.410;17.394;2023-04-25T00:11:02;23.00;47.10
43561;DHT22;32305;46.410;17.394;2023-04-25T00:13:30;23.00;47.10
43561;DHT22;32305;46.410;17.394;2023-04-25T00:15:57;22.90;47.10
43561;DHT22;32305;46.410;17.394;2023-04-25T00:18:24;22.90;47.00
43561;DHT22;32305;46.410;17.394;2023-04-25T00:20:52;22.90;47.00
43561;DHT22;32305;46.410;17.394;2023-04-25T00:23:19;22.90;47.10
43561;DHT22;32305;46.410;17.394;2023-04-25T00:25:48;22.90;47.10
43561;DHT22;32305;46.410;17.394;2023-04-25T00:28:16;23.00;47.70
43561;DHT22;32305;46.410;17.394;2023-04-25T00:30:43;22.90;47.10
43561;DHT22;32305;46.410;17.394;2023-04-25T00:33:10;22.90;47.20
43561;DHT22;32305;46.410;17.394;2023-04-25T00:35:38;22.90;47.20
43561;DHT22;32305;46.410;17.394;2023-04-25T00:38:05;22.90;47.20
43561;DHT22;32305;46.410;17.394;2023-04-25T00:40:32;22.90;47.20
43561;DHT22;32305;46.410;17.394;2023-04-25T00:42:59;22.90;47.20
43561;DHT22;32305;46.410;17.394;2023-04-25T00:45:30;22.90;47.20
43561;DHT22;32305;46.410;17.394;2023-04-25T00:47:57;22.90;47.20
43561;DHT22;32305;46.410;17.394;2023-04-25T00:50:24;22.90;47.20
43561;DHT22;32305;46.410;17.394;2023-04-25T00:52:52;22.90;47.20
43561;DHT22;32305;46.410;17.394;2023-04-25T00:55:19;22.90;47.20
43561;DHT22;32305;46.410;17.394;2023-04-25T00:57:47;22.80;47.10
43561;DHT22;32305;46.410;17.394;2023-04-25T01:00:14;22.90;47.20
43561;DHT22;32305;46.410;17.394;2023-04-25T01:02:42;22.90;47.10
43561;DHT22;32305;46.410;17.394;2023-04-25T01:05:10;22.90;47.00
43561;DHT22;32305;46.410;17.394;2023-04-25T01:07:39;22.90;47.00
43561;DHT22;32305;46.410;17.394;2023-04-25T01:10:06;23.00;47.00
43561;DHT22;32305;46.410;17.394;2023-04-25T01:12:34;22.90;46.90
43561;DHT22;32305;46.410;17.394;2023-04-25T01:15:02;22.90;46.90
43561;DHT22;32305;46.410;17.394;2023-04-25T01:17:29;22.90;46.90
43561;DHT22;32305;46.410;17.394;2023-04-25T01:19:56;22.90;46.90
43561;DHT22;32305;46.410;17.394;2023-04-25T01:22:23;22.90;46.90
43561;DHT22;32305;46.410;17.394;2023-04-25T01:24:51;22.90;46.90
43561;DHT22;32305;46.410;17.394;2023-04-25T01:27:18;22.90;46.90
43561;DHT22;32305;46.410;17.394;2023-04-25T01:29:46;22.90;46.80
43561;DHT22;32305;46.410;17.394;2023-04-25T01:32:13;22.90;46.80
43561;DHT22;32305;46.410;17.394;2023-04-25T01:34:41;22.90;46.80
43561;DHT22;32305;46.410;17.394;2023-04-25T01:37:08;22.90;46.80
43561;DHT22;32305;46.410;17.394;2023-04-25T01:39:35;22.90;46.80
43561;DHT22;32305;46.410;17.394;2023-04-25T01:42:03;22.90;46.80
43561;DHT22;32305;46.410;17.394;2023-04-25T01:44:30;22.90;46.80
43561;DHT22;32305;46.410;17.394;2023-04-25T01:46:57;22.90;46.80
43561;DHT22;32305;46.410;17.394;2023-04-25T01:49:24;22.90;46.80
43561;DHT22;32305;46.410;17.394;2023-04-25T01:51:52;22.90;46.90
43561;DHT22;32305;46.410;17.394;2023-04-25T01:54:19;22.90;46.80
43561;DHT22;32305;46.410;17.394;2023-04-25T01:56:50;22.80;47.30
43561;DHT22;32305;46.410;17.394;2023-04-25T01:59:18;22.90;46.80
43561;DHT22;32305;46.410;17.394;2023-04-25T02:01:47;22.80;46.80
43561;DHT22;32305;46.410;17.394;2023-04-25T02:04:14;22.80;46.80
43561;DHT22;32305;46.410;17.394;2023-04-25T02:06:42;22.80;46.80
43561;DHT22;32305;46.410;17.394;2023-04-25T02:09:09;22.80;46.80
43561;DHT22;32305;46.410;17.394;2023-04-25T02:11:36;22.80;46.80
43561;DHT22;32305;46.410;17.394;2023-04-25T02:14:03;22.90;46.80
43561;DHT22;32305;46.410;17.394;2023-04-25T02:16:31;22.90;46.80
43561;DHT22;32305;46.410;17.394;2023-04-25T02:18:58;22.90;46.80
43561;DHT22;32305;46.410;17.394;2023-04-25T02:21:25;22.80;46.70
43561;DHT22;32305;46.410;17.394;2023-04-25T02:23:53;22.80;46.80
43561;DHT22;32305;46.410;17.394;2023-04-25T02:26:20;22.80;46.80
43561;DHT22;32305;46.410;17.394;2023-04-25T02:28:51;22.80;46.80
43561;DHT22;32305;46.410;17.394;2023-04-25T02:31:18;22.80;46.90
43561;DHT22;32305;46.410;17.394;2023-04-25T02:33:46;22.80;46.90
43561;DHT22;32305;46.410;17.394;2023-04-25T02:36:13;22.80;46.90
43561;DHT22;32305;46.410;17.394;2023-04-25T02:38:40;22.80;46.90
43561;DHT22;32305;46.410;17.394;2023-04-25T02:41:08;22.80;46.90
43561;DHT22;32305;46.410;17.394;2023-04-25T02:43:35;22.80;46.90
43561;DHT22;32305;46.410;17.394;2023-04-25T02:46:02;22.80;46.90
43561;DHT22;32305;46.410;17.394;2023-04-25T02:48:29;22.80;46.90
43561;DHT22;32305;46.410;17.394;2023-04-25T02:50:56;22.80;46.90
43561;DHT22;32305;46.410;17.394;2023-04-25T02:53:23;22.80;46.90
43561;DHT22;32305;46.410;17.394;2023-04-25T02:55:50;22.80;46.90
43561;DHT22;32305;46.410;17.394;2023-04-25T02:58:19;22.80;46.90
43561;DHT22;32305;46.410;17.394;2023-04-25T03:00:46;22.80;46.80
43561;DHT22;32305;46.410;17.394;2023-04-25T03:03:13;22.90;46.70
43561;DHT22;32305;46.410;17.394;2023-04-25T03:05:43;22.90;46.70
43561;DHT22;32305;46.410;17.394;2023-04-25T03:08:10;22.90;46.60
43561;DHT22;32305;46.410;17.394;2023-04-25T03:10:38;22.90;46.60
43561;DHT22;32305;46.410;17.394;2023-04-25T03:13:05;22.80;46.50
43561;DHT22;32305;46.410;17.394;2023-04-25T03:15:32;22.80;46.50
43561;DHT22;32305;46.410;17.394;2023-04-25T03:18:00;22.80;46.50
43561;DHT22;32305;46.410;17.394;2023-04-25T03:20:27;22.80;46.50
43561;DHT22;32305;46.410;17.394;2023-04-25T03:22:55;22.80;46.50
43561;DHT22;32305;46.410;17.394;2023-04-25T03:25:22;22.90;46.50
43561;DHT22;32305;46.410;17.394;2023-04-25T03:27:50;22.80;46.50
43561;DHT22;32305;46.410;17.394;2023-04-25T03:30:17;22.80;46.50
43561;DHT22;32305;46.410;17.394;2023-04-25T03:32:44;22.80;46.50
43561;DHT22;32305;46.410;17.394;2023-04-25T03:35:11;22.80;46.50
43561;DHT22;32305;46.410;17.394;2023-04-25T03:37:38;22.80;46.50
43561;DHT22;32305;46.410;17.394;2023-04-25T03:40:07;22.80;46.50
43561;DHT22;32305;46.410;17.394;2023-04-25T03:42:35;22.80;46.50
43561;DHT22;32305;46.410;17.394;2023-04-25T03:45:03;22.80;46.50
43561;DHT22;32305;46.410;17.394;2023-04-25T03:47:30;22.80;46.50
43561;DHT22;32305;46.410;17.394;2023-04-25T03:49:57;22.80;46.50
43561;DHT22;32305;46.410;17.394;2023-04-25T03:52:24;22.80;46.50
43561;DHT22;32305;46.410;17.394;2023-04-25T03:54:51;22.80;46.50
43561;DHT22;32305;46.410;17.394;2023-04-25T03:57:19;22.80;46.50
43561;DHT22;32305;46.410;17.394;2023-04-25T03:59:46;22.80;46.50
43561;DHT22;32305;46.410;17.394;2023-04-25T04:02:13;22.70;47.00
43561;DHT22;32305;46.410;17.394;2023-04-25T04:04:40;22.80;46.50
43561;DHT22;32305;46.410;17.394;2023-04-25T04:07:09;22.80;46.50
43561;DHT22;32305;46.410;17.394;2023-04-25T04:09:37;22.80;46.50
43561;DHT22;32305;46.410;17.394;2023-04-25T04:12:04;22.80;46.50
43561;DHT22;32305;46.410;17.394;2023-04-25T04:14:31;22.80;46.50
43561;DHT22;32305;46.410;17.394;2023-04-25T04:16:58;22.80;46.40
43561;DHT22;32305;46.410;17.394;2023-04-25T04:19:25;22.70;46.40
43561;DHT22;32305;46.410;17.394;2023-04-25T04:21:53;22.80;46.40
43561;DHT22;32305;46.410;17.394;2023-04-25T04:24:20;22.70;46.40
43561;DHT22;32305;46.410;17.394;2023-04-25T04:26:47;22.70;46.50
43561;DHT22;32305;46.410;17.394;2023-04-25T04:29:14;22.80;46.60
43561;DHT22;32305;46.410;17.394;2023-04-25T04:31:48;22.70;46.50
43561;DHT22;32305;46.410;17.394;2023-04-25T04:34:17;22.70;46.50
43561;DHT22;32305;46.410;17.394;2023-04-25T04:36:45;22.70;46.50
43561;DHT22;32305;46.410;17.394;2023-04-25T04:39:13;22.80;46.50
43561;DHT22;32305;46.410;17.394;2023-04-25T04:41:40;22.80;46.50
43561;DHT22;32305;46.410;17.394;2023-04-25T04:44:08;22.80;46.50
43561;DHT22;32305;46.410;17.394;2023-04-25T04:46:35;22.80;46.40
43561;DHT22;32305;46.410;17.394;2023-04-25T04:49:10;22.80;46.30
43561;DHT22;32305;46.410;17.394;2023-04-25T04:51:37;22.90;46.30
43561;DHT22;32305;46.410;17.394;2023-04-25T04:54:05;22.90;46.20
43561;DHT22;32305;46.410;17.394;2023-04-25T04:56:32;22.90;46.20
43561;DHT22;32305;46.410;17.394;2023-04-25T04:58:59;22.90;46.10
43561;DHT22;32305;46.410;17.394;2023-04-25T05:01:27;22.90;46.10
43561;DHT22;32305;46.410;17.394;2023-04-25T05:03:54;22.90;46.00
43561;DHT22;32305;46.410;17.394;2023-04-25T05:06:27;22.90;46.00
43561;DHT22;32305;46.410;17.394;2023-04-25T05:08:58;23.00;46.00
43561;DHT22;32305;46.410;17.394;2023-04-25T05:11:26;23.00;45.90
43561;DHT22;32305;46.410;17.394;2023-04-25T05:13:53;23.00;45.90
43561;DHT22;32305;46.410;17.394;2023-04-25T05:16:20;23.00;45.80
43561;DHT22;32305;46.410;17.394;2023-04-25T05:18:48;23.00;45.80
43561;DHT22;32305;46.410;17.394;2023-04-25T05:21:15;23.00;45.70
43561;DHT22;32305;46.410;17.394;2023-04-25T05:23:43;23.00;45.70
43561;DHT22;32305;46.410;17.394;2023-04-25T05:26:10;23.00;45.70
43561;DHT22;32305;46.410;17.394;2023-04-25T05:28:41;23.00;45.70
43561;DHT22;32305;46.410;17.394;2023-04-25T05:31:12;23.00;45.70
43561;DHT22;32305;46.410;17.394;2023-04-25T05:33:39;23.10;45.90
43561;DHT22;32305;46.410;17.394;2023-04-25T05:36:07;23.10;46.10
43561;DHT22;32305;46.410;17.394;2023-04-25T05:38:34;23.10;46.20
43561;DHT22;32305;46.410;17.394;2023-04-25T05:41:02;23.10;46.30
43561;DHT22;32305;46.410;17.394;2023-04-25T05:43:29;23.20;46.30
43561;DHT22;32305;46.410;17.394;2023-04-25T05:45:56;23.20;46.10
43561;DHT22;32305;46.410;17.394;2023-04-25T05:48:24;23.30;45.90
43561;DHT22;32305;46.410;17.394;2023-04-25T05:50:51;23.30;45.70
43561;DHT22;32305;46.410;17.394;2023-04-25T05:53:20;23.30;45.60
43561;DHT22;32305;46.410;17.394;2023-04-25T05:55:47;23.40;45.50
43561;DHT22;32305;46.410;17.394;2023-04-25T05:58:14;23.40;45.50
43561;DHT22;32305;46.410;17.394;2023-04-25T06:00:42;23.50;45.60
43561;DHT22;32305;46.410;17.394;2023-04-25T06:03:09;23.50;45.60
43561;DHT22;32305;46.410;17.394;2023-04-25T06:05:37;23.60;45.70
43561;DHT22;32305;46.410;17.394;2023-04-25T06:08:04;23.70;45.70
43561;DHT22;32305;46.410;17.394;2023-04-25T06:10:31;23.70;45.70
43561;DHT22;32305;46.410;17.394;2023-04-25T06:12:58;23.70;45.70
43561;DHT22;32305;46.410;17.394;2023-04-25T06:15:26;23.80;45.70
43561;DHT22;32305;46.410;17.394;2023-04-25T06:17:55;23.80;45.60
43561;DHT22;32305;46.410;17.394;2023-04-25T06:20:23;23.90;45.50
43561;DHT22;32305;46.410;17.394;2023-04-25T06:22:51;23.90;45.50
43561;DHT22;32305;46.410;17.394;2023-04-25T06:25:19;23.90;45.50
43561;DHT22;32305;46.410;17.394;2023-04-25T06:27:47;24.00;45.60
43561;DHT22;32305;46.410;17.394;2023-04-25T06:30:15;24.00;45.50
43561;DHT22;32305;46.410;17.394;2023-04-25T06:32:45;24.00;45.50
43561;DHT22;32305;46.410;17.394;2023-04-25T06:35:12;24.10;45.60
43561;DHT22;32305;46.410;17.394;2023-04-25T06:37:40;24.10;45.60
43561;DHT22;32305;46.410;17.394;2023-04-25T06:40:08;24.10;45.60
43561;DHT22;32305;46.410;17.394;2023-04-25T06:42:36;24.20;45.60
43561;DHT22;32305;46.410;17.394;2023-04-25T06:45:03;24.30;45.60
43561;DHT22;32305;46.410;17.394;2023-04-25T06:47:31;24.30;45.60
43561;DHT22;32305;46.410;17.394;2023-04-25T06:49:58;24.30;45.50
43561;DHT22;32305;46.410;17.394;2023-04-25T06:52:25;24.40;45.60
43561;DHT22;32305;46.410;17.394;2023-04-25T06:54:53;24.40;45.40
43561;DHT22;32305;46.410;17.394;2023-04-25T06:57:20;24.40;45.30
43561;DHT22;32305;46.410;17.394;2023-04-25T06:59:47;24.50;45.20
43561;DHT22;32305;46.410;17.394;2023-04-25T07:02:14;24.50;45.10
43561;DHT22;32305;46.410;17.394;2023-04-25T07:04:42;24.50;45.00
43561;DHT22;32305;46.410;17.394;2023-04-25T07:07:09;24.60;44.90
43561;DHT22;32305;46.410;17.394;2023-04-25T07:09:36;24.60;44.70
43561;DHT22;32305;46.410;17.394;2023-04-25T07:12:04;24.60;44.60
43561;DHT22;32305;46.410;17.394;2023-04-25T07:14:31;24.60;44.40
43561;DHT22;32305;46.410;17.394;2023-04-25T07:16:58;24.60;44.30
43561;DHT22;32305;46.410;17.394;2023-04-25T07:19:26;24.70;44.30
43561;DHT22;32305;46.410;17.394;2023-04-25T07:21:56;24.60;44.20
43561;DHT22;32305;46.410;17.394;2023-04-25T07:24:27;24.70;44.20
43561;DHT22;32305;46.410;17.394;2023-04-25T07:26:54;24.70;44.30
43561;DHT22;32305;46.410;17.394;2023-04-25T07:29:21;24.70;44.40
43561;DHT22;32305;46.410;17.394;2023-04-25T07:31:48;24.70;44.20
43561;DHT22;32305;46.410;17.394;2023-04-25T07:34:15;24.80;44.10
43561;DHT22;32305;46.410;17.394;2023-04-25T07:36:43;24.80;44.00
43561;DHT22;32305;46.410;17.394;2023-04-25T07:39:10;24.80;43.80
43561;DHT22;32305;46.410;17.394;2023-04-25T07:41:39;24.80;43.50
43561;DHT22;32305;46.410;17.394;2023-04-25T07:44:06;24.80;43.50
43561;DHT22;32305;46.410;17.394;2023-04-25T07:46:33;24.80;43.50
43561;DHT22;32305;46.410;17.394;2023-04-25T07:49:00;24.80;43.60
43561;DHT22;32305;46.410;17.394;2023-04-25T07:51:28;24.90;43.60
43561;DHT22;32305;46.410;17.394;2023-04-25T07:53:55;24.80;43.40
43561;DHT22;32305;46.410;17.394;2023-04-25T07:56:22;24.90;43.60
43561;DHT22;32305;46.410;17.394;2023-04-25T07:58:49;24.90;43.50
43561;DHT22;32305;46.410;17.394;2023-04-25T08:01:17;24.90;43.40
43561;DHT22;32305;46.410;17.394;2023-04-25T08:03:44;24.90;43.40
43561;DHT22;32305;46.410;17.394;2023-04-25T08:06:12;24.90;43.20
43561;DHT22;32305;46.410;17.394;2023-04-25T08:08:40;24.90;43.40
43561;DHT22;32305;46.410;17.394;2023-04-25T08:11:07;24.90;43.20
43561;DHT22;32305;46.410;17.394;2023-04-25T08:13:34;24.90;43.30
43561;DHT22;32305;46.410;17.394;2023-04-25T08:16:02;24.90;43.20
43561;DHT22;32305;46.410;17.394;2023-04-25T08:18:30;24.90;43.00
43561;DHT22;32305;46.410;17.394;2023-04-25T08:20:57;24.90;37.90
43561;DHT22;32305;46.410;17.394;2023-04-25T08:23:24;24.90;37.70
43561;DHT22;32305;46.410;17.394;2023-04-25T08:25:51;24.80;38.60
43561;DHT22;32305;46.410;17.394;2023-04-25T08:28:19;24.80;39.20
43561;DHT22;32305;46.410;17.394;2023-04-25T08:30:46;24.80;39.80
43561;DHT22;32305;46.410;17.394;2023-04-25T08:33:13;24.80;40.20
43561;DHT22;32305;46.410;17.394;2023-04-25T08:35:40;24.90;40.50
43561;DHT22;32305;46.410;17.394;2023-04-25T08:38:08;24.90;40.70
43561;DHT22;32305;46.410;17.394;2023-04-25T08:40:38;24.90;41.00
43561;DHT22;32305;46.410;17.394;2023-04-25T08:43:07;24.90;41.10
43561;DHT22;32305;46.410;17.394;2023-04-25T08:45:39;24.90;41.10
43561;DHT22;32305;46.410;17.394;2023-04-25T08:48:12;24.90;41.20
43561;DHT22;32305;46.410;17.394;2023-04-25T08:50:51;24.90;41.10
43561;DHT22;32305;46.410;17.394;2023-04-25T08:53:25;24.90;41.10
43561;DHT22;32305;46.410;17.394;2023-04-25T08:55:56;25.00;41.20
43561;DHT22;32305;46.410;17.394;2023-04-25T08:58:24;25.00;41.20
43561;DHT22;32305;46.410;17.394;2023-04-25T09:00:51;25.10;41.40
43561;DHT22;32305;46.410;17.394;2023-04-25T09:03:19;25.10;41.30
43561;DHT22;32305;46.410;17.394;2023-04-25T09:05:47;25.10;41.40
43561;DHT22;32305;46.410;17.394;2023-04-25T09:08:14;25.10;41.30
43561;DHT22;32305;46.410;17.394;2023-04-25T09:10:42;25.10;40.90
43561;DHT22;32305;46.410;17.394;2023-04-25T09:13:12;25.10;40.60
43561;DHT22;32305;46.410;17.394;2023-04-25T09:15:51;25.20;40.40
43561;DHT22;32305;46.410;17.394;2023-04-25T09:18:31;25.20;40.40
43561;DHT22;32305;46.410;17.394;2023-04-25T09:21:09;25.20;40.50
43561;DHT22;32305;46.410;17.394;2023-04-25T09:23:45;25.30;40.70
43561;DHT22;32305;46.410;17.394;2023-04-25T09:26:17;25.30;40.50
43561;DHT22;32305;46.410;17.394;2023-04-25T09:28:45;25.30;40.10
43561;DHT22;32305;46.410;17.394;2023-04-25T09:31:24;25.30;39.90
43561;DHT22;32305;46.410;17.394;2023-04-25T09:33:59;25.30;39.90
43561;DHT22;32305;46.410;17.394;2023-04-25T09:36:29;25.30;39.70
43561;DHT22;32305;46.410;17.394;2023-04-25T09:38:59;25.30;39.60
43561;DHT22;32305;46.410;17.394;2023-04-25T09:41:28;25.30;39.70
43561;DHT22;32305;46.410;17.394;2023-04-25T09:43:57;25.30;39.60
43561;DHT22;32305;46.410;17.394;2023-04-25T09:46:32;25.40;39.30
43561;DHT22;32305;46.410;17.394;2023-04-25T09:49:06;25.40;39.30
43561;DHT22;32305;46.410;17.394;2023-04-25T09:51:34;25.40;39.40
43561;DHT22;32305;46.410;17.394;2023-04-25T09:54:01;25.40;39.40
43561;DHT22;32305;46.410;17.394;2023-04-25T09:56:36;25.40;39.30
43561;DHT22;32305;46.410;17.394;2023-04-25T09:59:05;25.40;39.50
43561;DHT22;32305;46.410;17.394;2023-04-25T10:01:34;25.40;39.50
43561;DHT22;32305;46.410;17.394;2023-04-25T10:04:04;25.40;39.50
43561;DHT22;32305;46.410;17.394;2023-04-25T10:06:33;25.40;39.50
43561;DHT22;32305;46.410;17.394;2023-04-25T10:09:01;25.40;39.50
43561;DHT22;32305;46.410;17.394;2023-04-25T10:11:30;25.40;39.50
43561;DHT22;32305;46.410;17.394;2023-04-25T10:13:59;25.50;39.70
43561;DHT22;32305;46.410;17.394;2023-04-25T10:16:28;25.50;39.70
43561;DHT22;32305;46.410;17.394;2023-04-25T10:18:55;25.60;39.60
43561;DHT22;32305;46.410;17.394;2023-04-25T10:21:23;25.60;39.70
43561;DHT22;32305;46.410;17.394;2023-04-25T10:23:51;25.70;39.60
43561;DHT22;32305;46.410;17.394;2023-04-25T10:26:19;25.70;39.60
43561;DHT22;32305;46.410;17.394;2023-04-25T10:29:00;25.70;39.60
43561;DHT22;32305;46.410;17.394;2023-04-25T10:31:29;25.80;39.70
43561;DHT22;32305;46.410;17.394;2023-04-25T10:33:59;25.80;39.80
43561;DHT22;32305;46.410;17.394;2023-04-25T10:36:31;25.80;40.00
43561;DHT22;32305;46.410;17.394;2023-04-25T10:39:04;25.80;39.40
43561;DHT22;32305;46.410;17.394;2023-04-25T10:41:47;25.90;38.70
43561;DHT22;32305;46.410;17.394;2023-04-25T10:44:14;25.90;38.20
43561;DHT22;32305;46.410;17.394;2023-04-25T10:46:44;25.90;37.80
43561;DHT22;32305;46.410;17.394;2023-04-25T10:49:33;25.90;38.30
43561;DHT22;32305;46.410;17.394;2023-04-25T10:52:26;26.00;37.70
43561;DHT22;32305;46.410;17.394;2023-04-25T10:54:56;26.00;37.20
43561;DHT22;32305;46.410;17.394;2023-04-25T10:57:41;26.00;36.70
43561;DHT22;32305;46.410;17.394;2023-04-25T11:00:14;26.00;36.70
43561;DHT22;32305;46.410;17.394;2023-04-25T11:02:48;26.00;36.70
43561;DHT22;32305;46.410;17.394;2023-04-25T11:05:20;26.00;36.70
43561;DHT22;32305;46.410;17.394;2023-04-25T11:07:51;26.00;36.90
43561;DHT22;32305;46.410;17.394;2023-04-25T11:10:33;26.00;36.90
43561;DHT22;32305;46.410;17.394;2023-04-25T11:13:04;26.10;36.90
43561;DHT22;32305;46.410;17.394;2023-04-25T11:15:31;26.00;36.70
43561;DHT22;32305;46.410;17.394;2023-04-25T11:17:59;26.00;36.90
43561;DHT22;32305;46.410;17.394;2023-04-25T11:20:26;26.00;36.50
43561;DHT22;32305;46.410;17.394;2023-04-25T11:22:58;26.10;36.20
43561;DHT22;32305;46.410;17.394;2023-04-25T11:25:26;26.10;36.00
43561;DHT22;32305;46.410;17.394;2023-04-25T11:27:57;26.10;35.70
43561;DHT22;32305;46.410;17.394;2023-04-25T11:30:26;26.10;35.20
43561;DHT22;32305;46.410;17.394;2023-04-25T11:32:53;26.10;34.80
43561;DHT22;32305;46.410;17.394;2023-04-25T11:35:20;26.10;34.80
43561;DHT22;32305;46.410;17.394;2023-04-25T11:37:50;26.10;34.80
43561;DHT22;32305;46.410;17.394;2023-04-25T11:40:17;26.10;34.40
43561;DHT22;32305;46.410;17.394;2023-04-25T11:42:46;26.10;34.10
43561;DHT22;32305;46.410;17.394;2023-04-25T11:45:14;26.10;33.90
43561;DHT22;32305;46.410;17.394;2023-04-25T11:47:41;26.10;33.00
43561;DHT22;32305;46.410;17.394;2023-04-25T11:50:09;26.00;30.00
43561;DHT22;32305;46.410;17.394;2023-04-25T11:52:39;25.80;30.00
43561;DHT22;32305;46.410;17.394;2023-04-25T11:55:14;25.70;31.10
43561;DHT22;32305;46.410;17.394;2023-04-25T11:57:43;25.70;31.90
43561;DHT22;32305;46.410;17.394;2023-04-25T12:00:14;25.70;32.20
43561;DHT22;32305;46.410;17.394;2023-04-25T12:02:47;25.70;32.70
43561;DHT22;32305;46.410;17.394;2023-04-25T12:05:15;25.70;33.00
43561;DHT22;32305;46.410;17.394;2023-04-25T12:07:58;25.80;33.80
43561;DHT22;32305;46.410;17.394;2023-04-25T12:10:25;25.80;34.10
43561;DHT22;32305;46.410;17.394;2023-04-25T12:12:53;25.80;34.40
43561;DHT22;32305;46.410;17.394;2023-04-25T12:15:24;25.90;34.60
43561;DHT22;32305;46.410;17.394;2023-04-25T12:17:53;25.90;34.90
43561;DHT22;32305;46.410;17.394;2023-04-25T12:20:24;26.00;35.10
43561;DHT22;32305;46.410;17.394;2023-04-25T12:22:53;26.00;35.20
43561;DHT22;32305;46.410;17.394;2023-04-25T12:25:41;26.10;35.30
43561;DHT22;32305;46.410;17.394;2023-04-25T12:28:20;26.10;35.70
43561;DHT22;32305;46.410;17.394;2023-04-25T12:30:59;26.20;35.70
43561;DHT22;32305;46.410;17.394;2023-04-25T12:33:29;26.20;35.70
43561;DHT22;32305;46.410;17.394;2023-04-25T12:35:57;26.20;35.80
43561;DHT22;32305;46.410;17.394;2023-04-25T12:38:29;26.20;35.80
43561;DHT22;32305;46.410;17.394;2023-04-25T12:40:58;26.20;36.00
43561;DHT22;32305;46.410;17.394;2023-04-25T12:43:25;26.20;36.10
43561;DHT22;32305;46.410;17.394;2023-04-25T12:45:54;26.20;36.50
43561;DHT22;32305;46.410;17.394;2023-04-25T12:48:22;26.20;36.40
43561;DHT22;32305;46.410;17.394;2023-04-25T12:50:50;26.30;36.20
43561;DHT22;32305;46.410;17.394;2023-04-25T12:53:19;26.20;36.10
43561;DHT22;32305;46.410;17.394;2023-04-25T12:55:47;26.20;36.20
43561;DHT22;32305;46.410;17.394;2023-04-25T12:58:15;26.20;36.10
43561;DHT22;32305;46.410;17.394;2023-04-25T13:00:43;26.20;36.30
43561;DHT22;32305;46.410;17.394;2023-04-25T13:03:11;26.20;36.30
43561;DHT22;32305;46.410;17.394;2023-04-25T13:05:40;26.20;36.40
43561;DHT22;32305;46.410;17.394;2023-04-25T13:08:08;26.20;36.40
43561;DHT22;32305;46.410;17.394;2023-04-25T13:10:35;26.20;36.40
43561;DHT22;32305;46.410;17.394;2023-04-25T13:13:03;26.20;36.60
43561;DHT22;32305;46.410;17.394;2023-04-25T13:15:30;26.20;36.80
43561;DHT22;32305;46.410;17.394;2023-04-25T13:17:57;26.20;36.70
43561;DHT22;32305;46.410;17.394;2023-04-25T13:20:25;26.30;36.80
43561;DHT22;32305;46.410;17.394;2023-04-25T13:22:52;26.20;36.70
43561;DHT22;32305;46.410;17.394;2023-04-25T13:25:19;26.20;36.80
43561;DHT22;32305;46.410;17.394;2023-04-25T13:27:46;26.20;36.80
43561;DHT22;32305;46.410;17.394;2023-04-25T13:30:13;26.20;36.80
43561;DHT22;32305;46.410;17.394;2023-04-25T13:32:41;26.20;36.80
43561;DHT22;32305;46.410;17.394;2023-04-25T13:35:11;26.30;37.10
43561;DHT22;32305;46.410;17.394;2023-04-25T13:37:39;26.30;37.00
43561;DHT22;32305;46.410;17.394;2023-04-25T13:40:08;26.30;36.90
43561;DHT22;32305;46.410;17.394;2023-04-25T13:42:37;26.40;37.10
43561;DHT22;32305;46.410;17.394;2023-04-25T13:45:06;26.40;36.90
43561;DHT22;32305;46.410;17.394;2023-04-25T13:47:34;26.40;36.90
43561;DHT22;32305;46.410;17.394;2023-04-25T13:50:03;26.50;36.90
43561;DHT22;32305;46.410;17.394;2023-04-25T13:52:32;26.50;36.90
43561;DHT22;32305;46.410;17.394;2023-04-25T13:54:59;26.60;36.30
43561;DHT22;32305;46.410;17.394;2023-04-25T13:57:26;26.60;34.90
43561;DHT22;32305;46.410;17.394;2023-04-25T13:59:53;26.60;33.70
43561;DHT22;32305;46.410;17.394;2023-04-25T14:02:20;26.60;33.40
43561;DHT22;32305;46.410;17.394;2023-04-25T14:04:48;26.60;34.00
43561;DHT22;32305;46.410;17.394;2023-04-25T14:07:15;26.60;34.20
43561;DHT22;32305;46.410;17.394;2023-04-25T14:09:47;26.60;34.20
43561;DHT22;32305;46.410;17.394;2023-04-25T14:12:16;26.60;33.50
43561;DHT22;32305;46.410;17.394;2023-04-25T14:14:43;26.60;33.40
43561;DHT22;32305;46.410;17.394;2023-04-25T14:17:10;26.60;33.00
43561;DHT22;32305;46.410;17.394;2023-04-25T14:19:38;26.60;32.80
43561;DHT22;32305;46.410;17.394;2023-04-25T14:22:10;26.60;32.50
43561;DHT22;32305;46.410;17.394;2023-04-25T14:24:37;26.60;32.40
43561;DHT22;32305;46.410;17.394;2023-04-25T14:27:04;26.60;32.50
43561;DHT22;32305;46.410;17.394;2023-04-25T14:29:32;26.60;32.70
43561;DHT22;32305;46.410;17.394;2023-04-25T14:31:59;26.60;33.80
43561;DHT22;32305;46.410;17.394;2023-04-25T14:34:27;26.60;32.20
43561;DHT22;32305;46.410;17.394;2023-04-25T14:36:54;26.60;31.90
43561;DHT22;32305;46.410;17.394;2023-04-25T14:39:21;26.60;32.30
43561;DHT22;32305;46.410;17.394;2023-04-25T14:41:48;26.60;32.70
43561;DHT22;32305;46.410;17.394;2023-04-25T14:44:15;26.60;33.30
43561;DHT22;32305;46.410;17.394;2023-04-25T14:46:42;26.60;33.50
43561;DHT22;32305;46.410;17.394;2023-04-25T14:49:10;26.50;33.50
43561;DHT22;32305;46.410;17.394;2023-04-25T14:51:37;26.50;34.10
43561;DHT22;32305;46.410;17.394;2023-04-25T14:54:04;26.50;34.40
43561;DHT22;32305;46.410;17.394;2023-04-25T14:56:31;26.40;34.50
43561;DHT22;32305;46.410;17.394;2023-04-25T14:58:58;26.40;34.80
43561;DHT22;32305;46.410;17.394;2023-04-25T15:01:25;26.40;35.10
43561;DHT22;32305;46.410;17.394;2023-04-25T15:03:53;26.30;35.40
43561;DHT22;32305;46.410;17.394;2023-04-25T15:06:20;26.30;35.50
43561;DHT22;32305;46.410;17.394;2023-04-25T15:08:48;26.30;35.80
43561;DHT22;32305;46.410;17.394;2023-04-25T15:11:15;26.20;36.20
43561;DHT22;32305;46.410;17.394;2023-04-25T15:13:42;26.20;36.40
43561;DHT22;32305;46.410;17.394;2023-04-25T15:16:09;26.20;36.40
43561;DHT22;32305;46.410;17.394;2023-04-25T15:18:38;26.20;37.30
43561;DHT22;32305;46.410;17.394;2023-04-25T15:21:05;26.20;37.60
43561;DHT22;32305;46.410;17.394;2023-04-25T15:23:33;26.20;36.70